Time;durP1;ratioP1;P1;durP2;ratioP2;P2;SDS_P1;SDS_P2;PMS_P1;PMS_P2;Temp;Humidity;BMP_temperature;BMP_pressure;BME280_temperature;BME280_humidity;BME280_pressure;Samples;Min_cycle;Max_cycle;Signal;HPM_P1;HPM_P2
2021/12/13 00:01:33;;;;;;;;;16.67;15.33;;;;;13.55;72.86;102389.16;6094737;23;45172;-91
2021/12/13 00:04:08;;;;;;;;;12.33;12.33;;;;;13.54;73.02;102384.72;6092911;23;45350;-91
2021/12/13 00:06:40;;;;;;;;;13.33;11.67;;;;;12.78;72.92;102255.72;6068882;23;45281;-91
2021/12/13 00:09:11;;;;;;;;;16.33;15.33;;;;;13.15;73.13;102331.38;6070147;23;45259;-92
2021/12/13 00:11:44;;;;;;;;;11.33;11.33;;;;;13.46;72.95;102384.94;6069840;23;47423;-91
2021/12/13 00:14:14;;;;;;;;;13.00;11.67;;;;;12.89;72.78;102299.06;6070193;23;45351;-92
2021/12/13 00:16:49;;;;;;;;;13.67;12.00;;;;;12.81;73.15;102278.81;6069810;23;45240;-91
2021/12/13 00:19:23;;;;;;;;;14.33;14.00;;;;;12.92;73.28;102294.56;6069830;23;45256;-91
2021/12/13 00:21:57;;;;;;;;;13.00;11.67;;;;;12.94;73.61;102301.63;6069538;23;47124;-91
2021/12/13 00:24:29;;;;;;;;;16.67;13.67;;;;;13.03;73.44;102316.53;6069643;23;45633;-90
2021/12/13 00:27:03;;;;;;;;;12.67;12.67;;;;;13.00;73.54;102312.16;6095600;23;45174;-90
2021/12/13 00:29:44;;;;;;;;;16.00;11.33;;;;;12.50;73.20;102227.97;6096113;23;45521;-91
2021/12/13 00:32:26;;;;;;;;;14.67;13.67;;;;;12.78;73.47;102289.59;6069419;23;48087;-92
2021/12/13 00:34:57;;;;;;;;;11.67;10.00;;;;;13.26;73.33;102359.59;6069420;23;45296;-91
2021/12/13 00:37:37;;;;;;;;;11.67;10.00;;;;;13.06;73.50;102335.19;6069545;23;45240;-91
2021/12/13 00:40:17;;;;;;;;;13.00;10.00;;;;;13.23;73.65;102357.00;6096410;23;45291;-91
2021/12/13 00:42:55;;;;;;;;;12.33;10.67;;;;;13.22;73.63;102357.91;6069096;23;48019;-90
2021/12/13 00:45:26;;;;;;;;;13.00;11.33;;;;;12.98;73.45;102310.44;6095336;23;45477;-91
2021/12/13 00:47:52;;;;;;;;;9.33;9.33;;;;;12.98;73.20;102321.16;6096335;23;45348;-92
2021/12/13 00:50:31;;;;;;;;;14.00;10.00;;;;;13.17;73.30;102362.53;6096131;23;45807;-91
2021/12/13 00:52:56;;;;;;;;;12.00;9.67;;;;;12.90;73.16;102313.34;6094910;23;46536;-91
2021/12/13 00:55:31;;;;;;;;;9.67;9.67;;;;;12.51;73.46;102246.66;6095615;23;45334;-91
2021/12/13 00:58:03;;;;;;;;;8.00;6.67;;;;;13.19;73.30;102359.81;6069552;23;45316;-90
2021/12/13 01:00:38;;;;;;;;;9.00;9.00;;;;;13.22;73.23;102367.75;6096008;23;45405;-91
2021/12/13 01:03:11;;;;;;;;;10.67;10.33;;;;;13.23;73.30;102367.72;6094225;23;47016;-90
2021/12/13 01:05:47;;;;;;;;;10.33;9.00;;;;;12.77;73.34;102299.41;6060962;23;45766;-91
2021/12/13 01:08:47;;;;;;;;;12.33;10.00;;;;;13.22;73.16;102365.06;6069158;23;45470;-91
2021/12/13 01:11:37;;;;;;;;;9.33;8.67;;;;;13.23;73.42;102365.03;6069952;23;45259;-92
2021/12/13 01:14:40;;;;;;;;;12.33;8.67;;;;;13.23;73.14;102365.03;6095181;23;46221;-91
2021/12/13 01:17:27;;;;;;;;;9.67;9.00;;;;;13.25;73.27;102355.16;6068993;23;45285;-91
2021/12/13 01:20:27;;;;;;;;;6.33;5.00;;;;;13.21;73.32;102352.63;6069014;23;45204;-91
2021/12/13 01:23:05;;;;;;;;;9.33;8.67;;;;;13.09;73.31;102329.75;6096026;23;45264;-91
2021/12/13 01:25:59;;;;;;;;;13.00;9.00;;;;;13.32;73.55;102368.41;6095913;23;46419;-91
2021/12/13 01:28:37;;;;;;;;;12.33;8.67;;;;;13.35;73.22;102352.25;6068313;23;45474;-91
2021/12/13 01:31:10;;;;;;;;;8.67;8.67;;;;;13.34;72.93;102358.53;6069482;23;45506;-90
2021/12/13 01:33:43;;;;;;;;;7.33;7.33;;;;;13.34;72.89;102361.19;6069495;23;45368;-90
2021/12/13 01:36:10;;;;;;;;;8.00;8.00;;;;;13.34;73.11;102363.88;6069553;23;47217;-89
2021/12/13 01:38:47;;;;;;;;;7.00;7.00;;;;;13.33;73.12;102359.47;6069354;23;45436;-90
2021/12/13 01:41:26;;;;;;;;;8.33;8.33;;;;;12.72;73.36;102257.69;6096252;23;45273;-90
2021/12/13 01:43:57;;;;;;;;;6.33;5.67;;;;;12.66;72.97;102258.72;6095840;23;45347;-90
2021/12/13 01:46:24;;;;;;;;;6.67;6.33;;;;;12.88;73.19;102296.47;6069176;23;47475;-90
2021/12/13 01:48:52;;;;;;;;;7.00;7.00;;;;;12.97;73.12;102306.91;6095000;23;45327;-90
2021/12/13 01:51:21;;;;;;;;;11.00;7.67;;;;;12.24;72.82;102168.06;6069644;23;45350;-90
2021/12/13 01:53:51;;;;;;;;;14.67;8.00;;;;;12.90;72.95;102294.63;6069619;23;45558;-90
2021/12/13 01:57:47;;;;;;;;;10.00;8.33;;;;;13.37;72.96;102363.78;6095305;23;46055;-90
2021/12/13 01:59:47;;;;;;;;;10.67;9.33;;;;;12.85;73.04;102283.16;6069381;23;45502;-91
2021/12/13 02:02:17;;;;;;;;;9.67;8.00;;;;;13.38;73.24;102363.75;6069949;23;45449;-91
2021/12/13 02:04:44;;;;;;;;;7.67;7.00;;;;;12.73;73.03;102259.41;6068994;23;45362;-91
2021/12/13 02:07:11;;;;;;;;;8.33;7.33;;;;;12.85;72.90;102285.81;6095224;23;46274;-90
2021/12/13 02:09:40;;;;;;;;;13.33;10.67;;;;;13.38;73.09;102371.78;6095701;23;45309;-91
2021/12/13 02:12:17;;;;;;;;;7.67;5.67;;;;;13.38;72.93;102370.91;6095680;23;45304;-91
2021/12/13 02:16:57;;;;;;;;;9.00;9.00;;;;;12.94;73.13;102298.06;6096126;23;45252;-91
2021/12/13 02:17:39;;;;;;;;;9.00;9.00;;;;;12.91;72.93;102298.16;6094157;23;45354;-91
2021/12/13 02:20:13;;;;;;;;;10.67;9.00;;;;;12.61;72.96;102249.94;6069338;23;45937;-91
2021/12/13 02:22:50;;;;;;;;;8.67;7.33;;;;;13.25;73.22;102349.81;6095862;23;45331;-90
2021/12/13 02:25:21;;;;;;;;;8.00;7.67;;;;;12.83;72.92;102283.22;6069467;23;45509;-90
2021/12/13 02:28:06;;;;;;;;;8.33;7.00;;;;;13.05;73.19;102328.09;6095337;23;45585;-91
2021/12/13 02:30:47;;;;;;;;;11.00;10.00;;;;;12.98;73.42;102319.34;6067854;23;45336;-91
2021/12/13 02:33:18;;;;;;;;;7.33;7.33;;;;;12.43;73.36;102222.81;6095014;23;45466;-90
2021/12/13 02:35:53;;;;;;;;;11.67;8.67;;;;;13.04;73.27;102332.56;6095560;23;45240;-90
2021/12/13 02:38:21;;;;;;;;;11.00;8.33;;;;;12.70;73.38;102259.53;6069247;23;47302;-90
2021/12/13 02:40:50;;;;;;;;;13.00;11.67;;;;;13.37;73.38;102375.38;6095408;23;45438;-90
2021/12/13 02:43:20;;;;;;;;;10.00;10.00;;;;;13.08;73.20;102325.31;6095594;23;45172;-90
2021/12/13 02:45:50;;;;;;;;;14.00;8.67;;;;;13.39;73.22;102367.28;6095353;23;45447;-90
2021/12/13 02:48:28;;;;;;;;;11.00;9.67;;;;;13.00;73.39;102308.59;6068450;23;48816;-90
2021/12/13 02:50:59;;;;;;;;;8.67;8.00;;;;;12.83;73.28;102268.94;6094718;23;45199;-90
2021/12/13 02:53:52;;;;;;;;;7.67;6.67;;;;;13.29;73.46;102356.84;6069507;23;45210;-90
2021/12/13 02:56:22;;;;;;;;;3.00;3.00;;;;;12.76;73.43;102253.97;6090522;23;45562;-89
2021/12/13 02:58:49;;;;;;;;;8.67;8.67;;;;;13.40;73.43;102364.56;6068149;23;47195;-90
2021/12/13 03:01:20;;;;;;;;;12.67;8.67;;;;;12.81;73.42;102279.69;6095161;23;45493;-90
2021/12/13 03:03:58;;;;;;;;;13.33;9.33;;;;;13.23;73.04;102354.34;6094570;23;45150;-90
2021/12/13 03:06:28;;;;;;;;;9.67;7.67;;;;;12.98;73.27;102311.31;6095621;23;45379;-90
2021/12/13 03:09:01;;;;;;;;;12.00;9.67;;;;;13.29;73.00;102364.88;6094812;23;46673;-90
2021/12/13 03:11:32;;;;;;;;;9.33;9.33;;;;;12.82;73.15;102291.25;6068752;23;45173;-90
2021/12/13 03:13:58;;;;;;;;;8.67;8.67;;;;;13.31;73.27;102370.19;6095823;23;45477;-90
2021/12/13 03:16:28;;;;;;;;;10.00;8.33;;;;;13.08;73.29;102339.56;6070037;23;45591;-90
2021/12/13 03:19:08;;;;;;;;;8.33;8.33;;;;;13.30;73.10;102363.97;6068774;23;47453;-90
2021/12/13 03:22:24;;;;;;;;;10.33;8.67;;;;;13.29;73.05;102364.88;6095165;23;45254;-90
2021/12/13 03:25:11;;;;;;;;;6.00;6.00;;;;;13.28;73.21;102359.59;6037615;23;45330;-90
2021/12/13 03:27:56;;;;;;;;;9.33;9.33;;;;;13.10;73.24;102327.03;6063139;23;45411;-89
2021/12/13 03:30:31;;;;;;;;;8.67;7.67;;;;;13.27;73.14;102348.00;6063544;23;46440;-90
2021/12/13 03:33:03;;;;;;;;;9.67;8.67;;;;;12.91;72.70;102285.66;6062604;23;45334;-90
2021/12/13 03:35:52;;;;;;;;;10.33;9.00;;;;;12.79;73.06;102276.19;6039138;23;45259;-90
2021/12/13 03:38:21;;;;;;;;;10.00;9.67;;;;;13.25;73.19;102355.16;6063915;23;45264;-90
2021/12/13 03:40:48;;;;;;;;;11.67;10.00;;;;;12.63;72.74;102257.00;6038213;23;47284;-90
2021/12/13 03:43:18;;;;;;;;;8.33;8.33;;;;;12.96;72.85;102315.84;6062379;23;45398;-90
2021/12/13 03:45:50;;;;;;;;;8.00;8.00;;;;;12.74;72.78;102278.13;6062477;23;45248;-90
2021/12/13 03:48:19;;;;;;;;;10.67;10.33;;;;;13.10;72.71;102345.75;6063576;23;45340;-91
2021/12/13 03:50:50;;;;;;;;;9.33;7.00;;;;;12.67;72.94;102277.41;6062552;23;45594;-89
2021/12/13 03:53:20;;;;;;;;;7.00;7.00;;;;;12.40;72.67;102238.91;6062910;23;45399;-89
2021/12/13 03:55:49;;;;;;;;;5.67;2.67;;;;;12.55;73.16;102253.69;6062859;23;45345;-90
2021/12/13 03:58:18;;;;;;;;;11.00;7.33;;;;;13.08;73.30;102339.56;6039016;23;45465;-90
2021/12/13 04:01:13;;;;;;;;;8.33;8.33;;;;;12.67;73.13;102261.34;6081637;23;47581;-91
2021/12/13 04:03:41;;;;;;;;;10.33;10.33;;;;;13.14;73.05;102343.88;6063811;23;45577;-89
2021/12/13 04:06:07;;;;;;;;;7.67;7.67;;;;;12.78;73.15;102270.88;6069302;23;45393;-91
2021/12/13 04:08:34;;;;;;;;;12.67;10.00;;;;;13.17;72.91;102341.13;6068547;23;45344;-90
2021/12/13 04:11:08;;;;;;;;;8.67;7.33;;;;;13.16;73.00;102343.81;6094118;23;47199;-91
2021/12/13 04:13:44;;;;;;;;;8.33;8.33;;;;;13.15;72.29;102342.94;6093806;23;46160;-91
2021/12/13 04:16:29;;;;;;;;;8.00;7.67;;;;;13.00;72.69;102327.34;6095270;23;45307;-91
2021/12/13 04:21:47;;;;;;;;;12.00;8.67;;;;;13.17;72.43;102330.41;6094041;23;46039;-90
2021/12/13 04:24:22;;;;;;;;;10.67;8.67;;;;;12.52;72.06;102234.16;6094452;23;45288;-90
2021/12/13 04:26:55;;;;;;;;;13.33;10.33;;;;;13.02;72.59;102317.47;6068565;23;45450;-91
2021/12/13 04:29:28;;;;;;;;;11.67;8.33;;;;;12.70;72.07;102271.09;6068939;23;45605;-91
2021/12/13 04:31:55;;;;;;;;;11.00;9.00;;;;;12.62;72.36;102244.56;6093828;23;45520;-90
2021/12/13 04:34:24;;;;;;;;;10.67;8.67;;;;;13.18;73.02;102340.22;6068679;23;45674;-90
2021/12/13 04:36:56;;;;;;;;;11.33;10.67;;;;;13.20;72.57;102340.13;6068037;23;45608;-90
2021/12/13 04:39:34;;;;;;;;;13.67;11.67;;;;;12.78;72.70;102269.09;6068697;23;45522;-90
2021/12/13 04:42:10;;;;;;;;;11.33;10.67;;;;;12.83;71.94;102290.34;6094194;23;45425;-90
2021/12/13 04:44:46;;;;;;;;;9.33;8.00;;;;;12.88;71.85;102286.63;6067683;23;45324;-90
2021/12/13 04:47:19;;;;;;;;;10.33;10.33;;;;;12.57;71.86;102254.53;6068105;23;45353;-90
2021/12/13 04:49:52;;;;;;;;;14.33;11.33;;;;;12.59;72.04;102257.13;6068751;23;45312;-90
2021/12/13 04:52:20;;;;;;;;;12.00;11.67;;;;;13.03;71.74;102336.16;6093771;23;45311;-89
2021/12/13 04:54:52;;;;;;;;;9.67;8.67;;;;;12.99;71.83;102337.16;6068249;23;45314;-90
2021/12/13 04:57:18;;;;;;;;;13.33;11.33;;;;;12.53;71.45;102271.56;6095787;23;45234;-93
2021/12/13 04:59:55;;;;;;;;;13.00;8.33;;;;;12.60;71.51;102281.16;6069940;23;45342;-89
2021/12/13 05:05:42;;;;;;;;;11.33;9.67;;;;;12.40;71.71;102259.44;6094593;23;45318;-90
2021/12/13 05:08:14;;;;;;;;;12.00;7.67;;;;;12.97;71.94;102360.44;6070154;23;45497;-90
2021/12/13 05:10:42;;;;;;;;;10.00;9.33;;;;;12.34;71.71;102256.91;6096897;23;45239;-90
2021/12/13 05:13:14;;;;;;;;;10.00;9.67;;;;;12.94;71.68;102360.50;6069217;23;48122;-90
2021/12/13 05:15:50;;;;;;;;;10.00;6.67;;;;;12.86;71.91;102343.78;6095547;23;45361;-90
2021/12/13 05:18:25;;;;;;;;;9.00;9.00;;;;;12.65;71.59;102305.13;6096588;23;45411;-90
2021/12/13 05:20:59;;;;;;;;;9.00;9.00;;;;;12.95;71.81;102359.59;6069581;23;45402;-90
2021/12/13 05:23:25;;;;;;;;;10.33;6.33;;;;;12.62;71.43;102292.72;6069604;23;48117;-89
2021/12/13 05:25:55;;;;;;;;;9.67;9.33;;;;;13.04;71.48;102363.78;6068572;23;45300;-90
2021/12/13 05:28:44;;;;;;;;;7.00;6.00;;;;;12.48;71.27;102277.94;6069165;23;45356;-90
2021/12/13 05:31:17;;;;;;;;;12.33;10.00;;;;;12.34;71.61;102263.16;6096588;23;45081;-90
2021/12/13 05:33:45;;;;;;;;;11.33;11.33;;;;;13.04;71.67;102369.13;6094976;23;45400;-90
2021/12/13 05:36:21;;;;;;;;;9.33;9.33;;;;;12.45;71.40;102262.84;6069612;23;45420;-90
2021/12/13 05:38:50;;;;;;;;;10.00;9.33;;;;;13.06;71.19;102365.53;6069422;23;45392;-90
2021/12/13 05:41:28;;;;;;;;;9.33;8.00;;;;;13.00;71.37;102354.97;6096424;23;45443;-91
2021/12/13 05:44:05;;;;;;;;;11.33;10.33;;;;;12.58;71.21;102279.47;6095045;23;46332;-90
2021/12/13 05:46:47;;;;;;;;;8.67;8.33;;;;;13.09;71.36;102359.22;6095273;23;45380;-90
2021/12/13 05:49:22;;;;;;;;;12.00;8.67;;;;;13.09;71.37;102365.44;6095677;23;45447;-90
2021/12/13 05:51:53;;;;;;;;;10.67;10.67;;;;;12.83;70.97;102320.66;6095867;23;45508;-91
2021/12/13 05:54:24;;;;;;;;;11.00;10.00;;;;;13.08;70.90;102366.34;6095313;23;45357;-90
2021/12/13 05:56:59;;;;;;;;;12.67;10.33;;;;;13.07;70.91;102363.72;6069642;23;45258;-88
2021/12/13 05:59:29;;;;;;;;;10.00;8.67;;;;;13.06;70.82;102367.31;6094395;23;45339;-83
2021/12/13 06:02:07;;;;;;;;;11.67;9.00;;;;;13.01;71.17;102364.75;6095486;23;45351;-84
2021/12/13 06:04:44;;;;;;;;;12.67;10.67;;;;;13.01;70.98;102367.44;6067585;23;47444;-84
2021/12/13 06:07:52;;;;;;;;;9.33;8.00;;;;;12.79;70.92;102336.84;6068163;23;46339;-87
2021/12/13 06:10:18;;;;;;;;;12.00;10.33;;;;;12.73;70.69;102332.53;6037441;23;45421;-87
2021/12/13 06:12:57;;;;;;;;;9.33;9.33;;;;;12.93;71.69;102364.09;6063200;23;45329;-87
2021/12/13 06:15:27;;;;;;;;;14.67;11.00;;;;;12.95;71.15;102356.03;6062816;23;48060;-88
2021/12/13 06:18:04;;;;;;;;;9.00;8.33;;;;;12.97;71.02;102360.44;6058371;23;46082;-87
2021/12/13 06:20:44;;;;;;;;;10.00;10.00;;;;;12.95;71.10;102367.63;6062611;23;45407;-82
2021/12/13 06:23:17;;;;;;;;;11.00;9.33;;;;;12.90;71.20;102350.81;6062782;23;45403;-81
2021/12/13 06:25:46;;;;;;;;;9.33;8.67;;;;;12.95;70.58;102366.75;6062110;23;45454;-84
2021/12/13 06:28:23;;;;;;;;;7.00;7.00;;;;;12.88;70.69;102358.00;6038474;23;45272;-86
2021/12/13 06:31:17;;;;;;;;;13.33;11.00;;;;;11.90;71.15;102208.19;6062435;23;45322;-86
2021/12/13 06:33:55;;;;;;;;;10.67;7.67;;;;;12.78;70.95;102369.84;6059597;23;45256;-86
2021/12/13 06:36:30;;;;;;;;;8.33;8.00;;;;;12.77;71.21;102368.13;6062118;23;46421;-85
2021/12/13 06:39:26;;;;;;;;;7.67;7.67;;;;;12.75;70.77;102373.50;6062650;23;45464;-83
2021/12/13 06:41:58;;;;;;;;;8.67;8.67;;;;;12.46;70.89;102328.81;6063475;23;45506;-84
2021/12/13 06:44:41;;;;;;;;;13.67;9.67;;;;;12.66;71.01;102369.25;6081913;23;45316;-85
2021/12/13 06:47:13;;;;;;;;;9.67;9.67;;;;;12.29;70.69;102314.97;6094743;23;45271;-85
2021/12/13 06:49:41;;;;;;;;;11.67;8.67;;;;;12.66;71.39;102379.97;6094791;23;45320;-86
2021/12/13 06:52:11;;;;;;;;;10.33;7.67;;;;;12.32;71.38;102326.50;6095094;23;45624;-86
2021/12/13 06:55:04;;;;;;;;;11.00;9.67;;;;;12.61;71.49;102367.63;6094613;23;45324;-86
2021/12/13 06:57:29;;;;;;;;;14.67;11.67;;;;;12.60;71.87;102372.13;6093621;23;46214;-86
2021/12/13 07:00:00;;;;;;;;;10.67;9.33;;;;;12.37;71.38;102326.38;6095198;23;45306;-86
2021/12/13 07:02:36;;;;;;;;;9.00;8.33;;;;;12.57;71.21;102361.50;6095145;23;45253;-86
2021/12/13 07:05:05;;;;;;;;;9.33;8.00;;;;;12.51;71.01;102356.31;6094920;23;45197;-86
2021/12/13 07:07:36;;;;;;;;;13.00;9.67;;;;;12.57;70.91;102369.53;6093854;23;46096;-86
2021/12/13 07:10:20;;;;;;;;;10.67;9.67;;;;;12.60;70.88;102376.59;6095110;23;45243;-86
2021/12/13 07:12:51;;;;;;;;;9.67;9.67;;;;;12.61;70.84;102379.22;6094946;23;45376;-86
2021/12/13 07:15:28;;;;;;;;;8.33;6.67;;;;;12.63;70.86;102382.72;6068966;23;45322;-86
2021/12/13 07:18:09;;;;;;;;;10.67;9.67;;;;;12.68;70.95;102372.78;6094415;23;46132;-86
2021/12/13 07:20:43;;;;;;;;;9.33;8.33;;;;;12.43;70.09;102326.19;6094487;23;45455;-85
2021/12/13 07:23:09;;;;;;;;;9.67;7.67;;;;;12.72;69.92;102368.25;6095212;23;45343;-88
2021/12/13 07:25:38;;;;;;;;;10.67;9.33;;;;;12.36;69.73;102308.56;6095227;23;45271;-86
2021/12/13 07:28:06;;;;;;;;;5.00;5.00;;;;;12.78;69.98;102375.22;6067981;23;47616;-81
2021/12/13 07:30:33;;;;;;;;;8.00;7.00;;;;;12.82;70.10;102383.13;6094125;23;45362;-81
2021/12/13 07:33:11;;;;;;;;;4.33;4.00;;;;;12.36;69.68;102300.53;6094543;23;45415;-82
2021/12/13 07:35:48;;;;;;;;;7.00;7.00;;;;;12.86;69.55;102374.09;6094678;23;45467;-89
2021/12/13 07:38:14;;;;;;;;;22.67;17.67;;;;;12.90;69.30;102382.94;6094490;23;45470;-83
2021/12/13 07:40:44;;;;;;;;;25.00;18.67;;;;;12.89;69.42;102386.50;6094153;23;45224;-82
2021/12/13 07:43:21;;;;;;;;;8.33;8.33;;;;;12.92;69.15;102396.25;6095102;23;45419;-83
2021/12/13 07:45:54;;;;;;;;;6.67;6.67;;;;;12.92;68.93;102393.56;6093486;23;45544;-83
2021/12/13 07:48:24;;;;;;;;;5.67;4.33;;;;;12.68;68.96;102355.84;6094829;23;45974;-84
2021/12/13 07:50:58;;;;;;;;;6.00;5.33;;;;;12.91;69.12;102392.69;6094246;23;45347;-81
2021/12/13 07:53:27;;;;;;;;;4.67;3.33;;;;;12.93;68.83;102381.97;6067831;23;45351;-82
2021/12/13 07:55:53;;;;;;;;;5.67;3.67;;;;;12.54;68.67;102316.09;6094290;23;45599;-82
2021/12/13 07:58:37;;;;;;;;;5.67;5.67;;;;;12.71;68.62;102350.41;6094228;23;45398;-82
2021/12/13 08:01:19;;;;;;;;;3.67;3.67;;;;;12.57;69.28;102324.06;6094806;23;45434;-82
2021/12/13 08:03:53;;;;;;;;;3.67;3.67;;;;;12.91;69.18;102386.47;6093660;23;45272;-81
2021/12/13 08:06:20;;;;;;;;;9.67;6.67;;;;;12.91;69.00;102387.34;6094478;23;45324;-81
2021/12/13 08:08:49;;;;;;;;;7.33;6.67;;;;;12.87;69.15;102378.50;6092990;23;45347;-82
2021/12/13 08:11:17;;;;;;;;;5.00;5.00;;;;;13.00;69.14;102389.78;6094415;23;45323;-82
2021/12/13 08:13:55;;;;;;;;;4.00;4.00;;;;;13.01;69.10;102385.28;6093495;23;45371;-82
2021/12/13 08:16:30;;;;;;;;;3.33;2.67;;;;;12.87;68.84;102373.16;6094761;23;45481;-79
2021/12/13 08:19:05;;;;;;;;;4.00;3.00;;;;;12.96;69.32;102385.41;6082709;23;45397;-79
2021/12/13 08:21:38;;;;;;;;;4.00;4.00;;;;;12.91;69.31;102373.97;6091863;23;45604;-79
2021/12/13 08:24:04;;;;;;;;;6.67;5.00;;;;;13.00;69.57;102389.78;6092827;23;45354;-79
2021/12/13 08:26:40;;;;;;;;;14.00;9.67;;;;;13.04;69.36;102390.56;6092804;23;45275;-79
2021/12/13 08:29:19;;;;;;;;;29.67;27.67;;;;;13.08;68.93;102390.44;6092503;23;46390;-79
2021/12/13 08:31:47;;;;;;;;;22.00;19.67;;;;;13.17;68.39;102383.06;6094041;23;45406;-78
2021/12/13 08:34:30;;;;;;;;;28.00;27.00;;;;;13.24;68.33;102390.88;6093940;23;45493;-79
2021/12/13 08:36:56;;;;;;;;;17.00;15.00;;;;;13.23;68.13;102375.75;6094020;23;45402;-80
2021/12/13 08:39:25;;;;;;;;;37.67;34.00;;;;;13.06;68.10;102346.78;6094057;23;45756;-80
2021/12/13 08:41:59;;;;;;;;;19.33;17.00;;;;;13.36;68.13;102391.50;6093036;23;45256;-80
2021/12/13 08:44:29;;;;;;;;;13.67;11.00;;;;;13.37;67.24;102395.91;6094485;23;45435;-80
2021/12/13 08:46:56;;;;;;;;;18.33;16.00;;;;;13.38;67.57;102401.25;6094490;23;45421;-79
2021/12/13 08:49:24;;;;;;;;;9.67;9.33;;;;;13.38;67.48;102401.25;6094386;23;45345;-79
2021/12/13 08:51:58;;;;;;;;;9.67;9.67;;;;;13.35;67.11;102398.66;6093296;23;45282;-79
2021/12/13 08:54:41;;;;;;;;;14.67;14.67;;;;;13.34;67.27;102402.25;6094667;23;45401;-80
2021/12/13 08:57:12;;;;;;;;;9.67;9.67;;;;;13.33;66.85;102394.28;6093885;23;45462;-80
2021/12/13 08:59:49;;;;;;;;;13.33;10.67;;;;;13.35;67.11;102397.78;6093577;23;45780;-80
2021/12/13 09:02:14;;;;;;;;;13.00;12.33;;;;;13.07;67.06;102353.03;6093109;23;45662;-79
2021/12/13 09:04:53;;;;;;;;;11.00;8.00;;;;;13.22;68.28;102387.38;6093052;23;45811;-80
2021/12/13 09:07:21;;;;;;;;;8.00;8.00;;;;;13.30;67.49;102413.97;6094922;23;45257;-79
2021/12/13 09:09:48;;;;;;;;;8.33;7.00;;;;;13.31;69.17;102418.41;6093549;23;46090;-79
2021/12/13 09:12:24;;;;;;;;;12.67;12.00;;;;;13.35;68.16;102393.31;6093175;23;45373;-79
2021/12/13 09:14:51;;;;;;;;;10.33;10.00;;;;;13.46;67.04;102399.22;6094591;23;45396;-79
2021/12/13 09:17:23;;;;;;;;;9.33;6.67;;;;;13.49;67.71;102411.66;6094549;23;45568;-79
2021/12/13 09:19:49;;;;;;;;;8.33;6.67;;;;;13.50;67.34;102411.59;6093513;23;45971;-79
2021/12/13 09:22:14;;;;;;;;;13.00;13.00;;;;;13.24;67.19;102417.66;6093090;23;45411;-79
2021/12/13 09:24:49;;;;;;;;;13.67;13.67;;;;;12.89;68.74;102405.25;6093709;23;45627;-79
2021/12/13 09:27:33;;;;;;;;;11.33;9.33;;;;;12.93;69.00;102406.06;6093076;23;45436;-79
2021/12/13 09:29:58;;;;;;;;;4.33;4.00;;;;;13.16;68.27;102426.81;6093450;23;45471;-79
2021/12/13 09:32:31;;;;;;;;;5.33;4.67;;;;;13.23;68.68;102428.44;6066749;23;45409;-79
2021/12/13 09:35:16;;;;;;;;;6.00;6.00;;;;;13.20;67.75;102423.16;6093748;23;45426;-79
2021/12/13 09:37:42;;;;;;;;;6.00;3.33;;;;;12.98;67.68;102388.06;6094231;23;45312;-80
2021/12/13 09:40:08;;;;;;;;;6.00;6.00;;;;;13.10;67.48;102417.16;6092752;23;46204;-79
2021/12/13 09:42:45;;;;;;;;;5.33;5.33;;;;;13.10;67.60;102433.22;6093949;23;45337;-80
2021/12/13 09:45:12;;;;;;;;;7.00;7.00;;;;;13.03;68.02;102420.94;6094109;23;45596;-80
2021/12/13 09:47:41;;;;;;;;;7.33;5.67;;;;;13.00;68.48;102416.53;6094343;23;45405;-80
2021/12/13 09:50:17;;;;;;;;;7.67;6.33;;;;;12.77;68.28;102390.41;6067553;23;46556;-80
2021/12/13 09:53:03;;;;;;;;;8.00;7.00;;;;;12.92;68.26;102420.34;6094580;23;45369;-80
2021/12/13 09:55:45;;;;;;;;;5.67;4.67;;;;;12.85;68.33;102416.94;6093785;23;45420;-80
2021/12/13 09:58:12;;;;;;;;;6.00;6.00;;;;;12.92;68.86;102426.56;6094276;23;45382;-79
2021/12/13 10:01:07;;;;;;;;;7.33;4.00;;;;;12.90;68.49;102425.75;6093719;23;45428;-79
2021/12/13 10:03:43;;;;;;;;;8.67;7.33;;;;;12.92;68.06;102434.59;6091751;23;45334;-80
2021/12/13 10:06:09;;;;;;;;;5.67;5.00;;;;;12.73;67.76;102395.88;6068304;23;45440;-80
2021/12/13 10:08:44;;;;;;;;;5.67;4.33;;;;;12.86;67.71;102424.06;6094239;23;45560;-80
2021/12/13 10:11:15;;;;;;;;;4.00;4.00;;;;;12.62;67.55;102389.00;6067114;23;47875;-79
2021/12/13 10:13:42;;;;;;;;;6.67;5.67;;;;;12.83;67.79;102430.38;6093390;23;45327;-79
2021/12/13 10:16:18;;;;;;;;;5.33;5.33;;;;;12.60;67.76;102395.31;6094194;23;45448;-80
2021/12/13 10:18:46;;;;;;;;;9.00;9.00;;;;;12.65;67.89;102426.38;6094388;23;45335;-79
2021/12/13 10:21:27;;;;;;;;;7.00;7.00;;;;;12.52;67.75;102418.69;6094003;23;45442;-79
2021/12/13 10:23:58;;;;;;;;;7.33;7.33;;;;;12.54;68.37;102414.19;6092976;23;45453;-79
2021/12/13 10:26:31;;;;;;;;;7.00;5.67;;;;;12.50;67.87;102400.00;6094029;23;45399;-79
2021/12/13 10:29:00;;;;;;;;;5.33;4.33;;;;;12.56;67.12;102420.38;6094344;23;45315;-80
2021/12/13 10:31:33;;;;;;;;;6.67;6.67;;;;;12.58;66.99;102418.56;6093275;23;46101;-79
2021/12/13 10:34:03;;;;;;;;;3.33;3.33;;;;;12.57;66.74;102406.06;6094123;23;45389;-80
2021/12/13 10:36:29;;;;;;;;;1.67;1.67;;;;;12.63;66.11;102419.31;6094059;23;45658;-79
2021/12/13 10:39:04;;;;;;;;;4.00;4.00;;;;;12.41;66.48;102382.41;6094064;23;45314;-79
2021/12/13 10:41:36;;;;;;;;;2.00;1.00;;;;;12.63;66.30;102425.53;6094144;23;46463;-80
2021/12/13 10:44:07;;;;;;;;;3.67;3.67;;;;;12.63;66.33;102422.84;6093573;23;45344;-80
2021/12/13 10:46:37;;;;;;;;;4.33;4.33;;;;;12.44;66.10;102393.03;6093691;23;45354;-80
2021/12/13 10:49:15;;;;;;;;;9.33;5.67;;;;;12.44;66.32;102408.19;6094412;23;45310;-80
2021/12/13 10:51:51;;;;;;;;;7.67;5.00;;;;;12.20;66.37;102373.13;6092217;23;46774;-80
2021/12/13 10:54:18;;;;;;;;;6.33;6.33;;;;;12.44;66.04;102416.22;6093677;23;45398;-80
2021/12/13 10:56:50;;;;;;;;;6.67;4.33;;;;;12.46;66.31;102411.72;6093951;23;45505;-80
2021/12/13 10:59:25;;;;;;;;;8.33;7.33;;;;;12.23;66.31;102377.50;6094218;23;45375;-80
2021/12/13 11:01:57;;;;;;;;;4.00;4.00;;;;;12.32;66.29;102389.78;6092987;23;46434;-80
2021/12/13 11:04:36;;;;;;;;;10.00;8.00;;;;;12.41;66.72;102402.94;6093053;23;45423;-79
2021/12/13 11:07:07;;;;;;;;;8.67;8.67;;;;;12.21;66.67;102361.50;6092977;23;45343;-80
2021/12/13 11:09:36;;;;;;;;;7.67;7.33;;;;;12.57;66.41;102411.41;6093675;23;45344;-80
2021/12/13 11:12:07;;;;;;;;;6.00;6.00;;;;;12.51;66.18;102399.09;6093167;23;45362;-80
2021/12/13 11:14:36;;;;;;;;;9.00;8.33;;;;;12.59;65.76;102412.28;6093742;23;45324;-80
2021/12/13 11:17:07;;;;;;;;;7.67;5.67;;;;;12.44;65.62;102387.66;6094149;23;45307;-80
2021/12/13 11:19:37;;;;;;;;;6.67;4.67;;;;;12.59;65.51;102412.28;6094321;23;45446;-81
2021/12/13 11:22:10;;;;;;;;;4.33;3.00;;;;;12.55;65.60;102416.84;6093601;23;45334;-81
2021/12/13 11:24:39;;;;;;;;;4.67;4.67;;;;;12.49;65.87;102416.09;6094498;23;45441;-80
2021/12/13 11:27:16;;;;;;;;;5.33;5.33;;;;;12.44;65.84;102410.88;6093286;23;45216;-80
2021/12/13 11:29:44;;;;;;;;;4.33;4.33;;;;;12.42;65.53;102408.22;6093546;23;45385;-80
2021/12/13 11:32:39;;;;;;;;;5.67;4.33;;;;;12.28;65.80;102390.78;6094374;23;45454;-79
2021/12/13 11:35:07;;;;;;;;;4.33;4.33;;;;;12.37;66.14;102407.47;6092760;23;45395;-80
2021/12/13 11:37:53;;;;;;;;;5.67;5.67;;;;;12.42;66.04;102404.66;6093495;23;45331;-81
2021/12/13 11:40:39;;;;;;;;;7.67;4.00;;;;;12.45;66.07;102404.59;6067398;23;45466;-79
2021/12/13 11:43:26;;;;;;;;;4.00;4.00;;;;;12.43;65.66;102398.41;6092928;23;46002;-78
2021/12/13 11:45:57;;;;;;;;;3.00;3.00;;;;;12.44;65.32;102401.03;6093517;23;45338;-78
2021/12/13 11:48:40;;;;;;;;;2.67;2.67;;;;;12.38;65.70;102402.97;6093755;23;45659;-79
2021/12/13 11:51:47;;;;;;;;;3.67;3.67;;;;;12.41;65.84;102397.59;6092972;23;45434;-80
2021/12/13 11:54:45;;;;;;;;;5.00;4.00;;;;;12.46;65.88;102396.53;6059686;23;46516;-80
2021/12/13 11:57:34;;;;;;;;;6.00;5.33;;;;;12.53;65.79;102391.03;6000931;23;46228;-80
2021/12/13 12:00:11;;;;;;;;;4.33;4.33;;;;;12.11;65.64;102313.66;6003105;23;45406;-80